Hewittville, New York
Current Conditions -  °F | °C
As of 6:53 AM on Monday 24 Nov 2014 (Local Time) from KMSS Reporting Station
Light Rain Light Rain  
Wind Chill: 54°   Ceiling: 4900
Heat Index: 54°   Visibility: 8mi
Dew Point: 48°   Wind: 16mph
Humidity: 80%   Direction: 140°SE
Pressure: 29.44"   Gusts: 28mph
Location:  44.7612°N, 74.9585°W
Report Text: KMSS 241153Z AUTO 14014G24KT 8SM -RA BKN049 BKN060 OVC085 12/09 A2944 RMK AO2 SLP973 P0011 60040 70040 T01220089 10122 20061 56065
Loading
Personal Weather Stations






























Interactive Weather Map New forecast layout! Learn more

10-Day Weather Forecast

Advertisements
Track Severe Weather on mobile